Albrightsville, Pennsylvania
Current Conditions -  °F | °C
As of 4:53 PM on Friday 24 Oct 2014 (Local Time) from KMPO Reporting Station
Clear Clear  
Wind Chill: 15°   Ceiling: Unl
Heat Index: 15°   Visibility: 10mi
Dew Point:   Wind: 18mph
Humidity: 48%   Direction: 320°NW
Pressure: 29.82"   Gusts: 28mph
Location:  41°N, 75.53°W
Report Text: KMPO 242053Z AUTO 32016G24KT 10SM CLR 15/04 A2982 RMK AO2 PK WND 32027/2031 SLP101 T01500039 55000
Loading
Personal Weather Stations






























Interactive Weather Map
Tropical Storm Tracking
New forecast layout! Learn more

10-Day Weather Forecast

Advertisements
Track Severe Weather on mobile